sensor_id;sensor_type;location;lat;lon;timestamp;P1;durP1;ratioP1;P2;durP2;ratioP2
27612;SDS011;15036;48.094;-1.690;2023-01-23T00:00:37;36.65;;;23.88;;
27612;SDS011;15036;48.094;-1.690;2023-01-23T00:03:04;39.92;;;24.45;;
27612;SDS011;15036;48.094;-1.690;2023-01-23T00:05:29;34.80;;;23.27;;
27612;SDS011;15036;48.094;-1.690;2023-01-23T00:07:54;36.67;;;23.35;;
27612;SDS011;15036;48.094;-1.690;2023-01-23T00:10:20;37.30;;;23.90;;
27612;SDS011;15036;48.094;-1.690;2023-01-23T00:12:46;39.72;;;24.33;;
27612;SDS011;15036;48.094;-1.690;2023-01-23T00:15:14;37.97;;;24.35;;
27612;SDS011;15036;48.094;-1.690;2023-01-23T00:17:40;39.45;;;25.02;;
27612;SDS011;15036;48.094;-1.690;2023-01-23T00:20:06;37.80;;;23.65;;
27612;SDS011;15036;48.094;-1.690;2023-01-23T00:22:33;35.17;;;23.92;;
27612;SDS011;15036;48.094;-1.690;2023-01-23T00:24:58;38.10;;;24.02;;
27612;SDS011;15036;48.094;-1.690;2023-01-23T00:27:24;40.22;;;23.60;;
27612;SDS011;15036;48.094;-1.690;2023-01-23T00:29:51;36.72;;;23.58;;
27612;SDS011;15036;48.094;-1.690;2023-01-23T00:32:16;34.25;;;21.42;;
27612;SDS011;15036;48.094;-1.690;2023-01-23T00:34:42;33.83;;;21.50;;
27612;SDS011;15036;48.094;-1.690;2023-01-23T00:37:07;32.30;;;21.40;;
27612;SDS011;15036;48.094;-1.690;2023-01-23T00:39:32;33.13;;;21.40;;
27612;SDS011;15036;48.094;-1.690;2023-01-23T00:41:58;36.90;;;22.17;;
27612;SDS011;15036;48.094;-1.690;2023-01-23T00:44:23;38.25;;;22.40;;
27612;SDS011;15036;48.094;-1.690;2023-01-23T00:46:49;38.70;;;22.95;;
27612;SDS011;15036;48.094;-1.690;2023-01-23T00:49:14;34.35;;;22.10;;
27612;SDS011;15036;48.094;-1.690;2023-01-23T00:51:41;36.72;;;21.73;;
27612;SDS011;15036;48.094;-1.690;2023-01-23T00:54:07;33.70;;;22.23;;
27612;SDS011;15036;48.094;-1.690;2023-01-23T00:56:32;35.30;;;21.92;;
27612;SDS011;15036;48.094;-1.690;2023-01-23T00:58:58;35.72;;;22.33;;
27612;SDS011;15036;48.094;-1.690;2023-01-23T01:01:23;35.40;;;21.42;;
27612;SDS011;15036;48.094;-1.690;2023-01-23T01:03:50;33.28;;;21.60;;
27612;SDS011;15036;48.094;-1.690;2023-01-23T01:06:15;33.67;;;21.27;;
27612;SDS011;15036;48.094;-1.690;2023-01-23T01:08:41;33.95;;;22.75;;
27612;SDS011;15036;48.094;-1.690;2023-01-23T01:11:06;33.95;;;22.08;;
27612;SDS011;15036;48.094;-1.690;2023-01-23T01:13:32;38.40;;;23.02;;
27612;SDS011;15036;48.094;-1.690;2023-01-23T01:15:58;35.83;;;22.02;;
27612;SDS011;15036;48.094;-1.690;2023-01-23T01:18:26;35.90;;;22.30;;
27612;SDS011;15036;48.094;-1.690;2023-01-23T01:20:52;35.30;;;22.38;;
27612;SDS011;15036;48.094;-1.690;2023-01-23T01:23:18;34.83;;;21.13;;
27612;SDS011;15036;48.094;-1.690;2023-01-23T01:25:44;37.00;;;22.83;;
27612;SDS011;15036;48.094;-1.690;2023-01-23T01:28:09;37.88;;;22.75;;
27612;SDS011;15036;48.094;-1.690;2023-01-23T01:30:34;33.33;;;21.23;;
27612;SDS011;15036;48.094;-1.690;2023-01-23T01:33:00;33.97;;;20.92;;
27612;SDS011;15036;48.094;-1.690;2023-01-23T01:35:26;34.05;;;21.50;;
27612;SDS011;15036;48.094;-1.690;2023-01-23T01:37:51;34.10;;;21.65;;
27612;SDS011;15036;48.094;-1.690;2023-01-23T01:40:19;34.85;;;21.58;;
27612;SDS011;15036;48.094;-1.690;2023-01-23T01:42:56;36.78;;;21.80;;
27612;SDS011;15036;48.094;-1.690;2023-01-23T01:49:16;31.40;;;20.40;;
27612;SDS011;15036;48.094;-1.690;2023-01-23T01:51:32;32.28;;;21.40;;
27612;SDS011;15036;48.094;-1.690;2023-01-23T01:54:04;31.80;;;20.10;;
27612;SDS011;15036;48.094;-1.690;2023-01-23T01:56:48;34.40;;;21.40;;
27612;SDS011;15036;48.094;-1.690;2023-01-23T01:59:18;32.63;;;21.33;;
27612;SDS011;15036;48.094;-1.690;2023-01-23T02:01:47;33.13;;;21.45;;
27612;SDS011;15036;48.094;-1.690;2023-01-23T02:04:16;36.27;;;22.03;;
27612;SDS011;15036;48.094;-1.690;2023-01-23T02:06:42;33.28;;;21.20;;
27612;SDS011;15036;48.094;-1.690;2023-01-23T02:09:10;37.03;;;21.10;;
27612;SDS011;15036;48.094;-1.690;2023-01-23T02:11:45;31.35;;;20.15;;
27612;SDS011;15036;48.094;-1.690;2023-01-23T02:14:11;32.33;;;21.30;;
27612;SDS011;15036;48.094;-1.690;2023-01-23T02:16:38;32.45;;;20.27;;
27612;SDS011;15036;48.094;-1.690;2023-01-23T02:19:13;31.60;;;21.00;;
27612;SDS011;15036;48.094;-1.690;2023-01-23T02:21:48;33.03;;;21.52;;
27612;SDS011;15036;48.094;-1.690;2023-01-23T02:26:49;30.75;;;19.88;;
27612;SDS011;15036;48.094;-1.690;2023-01-23T02:29:14;31.77;;;19.90;;
27612;SDS011;15036;48.094;-1.690;2023-01-23T02:31:43;32.20;;;21.35;;
27612;SDS011;15036;48.094;-1.690;2023-01-23T02:34:10;33.17;;;20.00;;
27612;SDS011;15036;48.094;-1.690;2023-01-23T02:36:36;34.20;;;21.52;;
27612;SDS011;15036;48.094;-1.690;2023-01-23T02:39:14;31.80;;;20.50;;
27612;SDS011;15036;48.094;-1.690;2023-01-23T02:41:42;33.30;;;21.27;;
27612;SDS011;15036;48.094;-1.690;2023-01-23T02:44:19;35.45;;;21.25;;
27612;SDS011;15036;48.094;-1.690;2023-01-23T02:46:53;34.53;;;20.45;;
27612;SDS011;15036;48.094;-1.690;2023-01-23T02:49:20;34.72;;;21.38;;
27612;SDS011;15036;48.094;-1.690;2023-01-23T02:51:49;36.20;;;23.00;;
27612;SDS011;15036;48.094;-1.690;2023-01-23T02:54:15;37.13;;;22.85;;
27612;SDS011;15036;48.094;-1.690;2023-01-23T02:56:41;33.58;;;21.90;;
27612;SDS011;15036;48.094;-1.690;2023-01-23T02:59:07;35.20;;;21.33;;
27612;SDS011;15036;48.094;-1.690;2023-01-23T03:01:51;36.67;;;22.45;;
27612;SDS011;15036;48.094;-1.690;2023-01-23T03:04:17;56.65;;;31.52;;
27612;SDS011;15036;48.094;-1.690;2023-01-23T03:06:42;37.83;;;23.92;;
27612;SDS011;15036;48.094;-1.690;2023-01-23T03:09:09;38.45;;;23.38;;
27612;SDS011;15036;48.094;-1.690;2023-01-23T03:11:36;34.67;;;22.42;;
27612;SDS011;15036;48.094;-1.690;2023-01-23T03:14:04;35.05;;;22.63;;
27612;SDS011;15036;48.094;-1.690;2023-01-23T03:16:31;36.83;;;22.75;;
27612;SDS011;15036;48.094;-1.690;2023-01-23T03:18:58;37.10;;;22.90;;
27612;SDS011;15036;48.094;-1.690;2023-01-23T03:21:29;38.97;;;22.67;;
27612;SDS011;15036;48.094;-1.690;2023-01-23T03:23:54;37.55;;;22.65;;
27612;SDS011;15036;48.094;-1.690;2023-01-23T03:26:20;32.95;;;21.67;;
27612;SDS011;15036;48.094;-1.690;2023-01-23T03:28:45;32.92;;;21.67;;
27612;SDS011;15036;48.094;-1.690;2023-01-23T03:31:29;34.67;;;21.30;;
27612;SDS011;15036;48.094;-1.690;2023-01-23T03:33:54;32.80;;;21.40;;
27612;SDS011;15036;48.094;-1.690;2023-01-23T03:36:20;32.95;;;21.25;;
27612;SDS011;15036;48.094;-1.690;2023-01-23T03:38:45;32.10;;;20.35;;
27612;SDS011;15036;48.094;-1.690;2023-01-23T03:41:29;32.75;;;20.33;;
27612;SDS011;15036;48.094;-1.690;2023-01-23T03:43:55;31.17;;;20.33;;
27612;SDS011;15036;48.094;-1.690;2023-01-23T03:46:21;35.30;;;20.67;;
27612;SDS011;15036;48.094;-1.690;2023-01-23T03:48:46;34.35;;;20.95;;
27612;SDS011;15036;48.094;-1.690;2023-01-23T03:51:11;33.42;;;20.92;;
27612;SDS011;15036;48.094;-1.690;2023-01-23T03:53:37;31.77;;;19.90;;
27612;SDS011;15036;48.094;-1.690;2023-01-23T03:56:02;29.35;;;19.20;;
27612;SDS011;15036;48.094;-1.690;2023-01-23T03:58:28;33.05;;;19.58;;
27612;SDS011;15036;48.094;-1.690;2023-01-23T04:00:54;29.30;;;19.13;;
27612;SDS011;15036;48.094;-1.690;2023-01-23T04:03:20;30.73;;;19.10;;
27612;SDS011;15036;48.094;-1.690;2023-01-23T04:05:46;33.55;;;19.77;;
27612;SDS011;15036;48.094;-1.690;2023-01-23T04:08:11;33.45;;;20.02;;
27612;SDS011;15036;48.094;-1.690;2023-01-23T04:10:36;29.70;;;19.40;;
27612;SDS011;15036;48.094;-1.690;2023-01-23T04:13:02;28.55;;;19.20;;
27612;SDS011;15036;48.094;-1.690;2023-01-23T04:15:28;25.60;;;17.58;;
27612;SDS011;15036;48.094;-1.690;2023-01-23T04:17:53;31.35;;;19.92;;
27612;SDS011;15036;48.094;-1.690;2023-01-23T04:20:18;28.98;;;19.42;;
27612;SDS011;15036;48.094;-1.690;2023-01-23T04:22:44;28.67;;;19.27;;
27612;SDS011;15036;48.094;-1.690;2023-01-23T04:25:09;29.48;;;19.60;;
27612;SDS011;15036;48.094;-1.690;2023-01-23T04:27:35;27.33;;;18.25;;
27612;SDS011;15036;48.094;-1.690;2023-01-23T04:30:00;27.95;;;18.67;;
27612;SDS011;15036;48.094;-1.690;2023-01-23T04:32:26;27.63;;;18.13;;
27612;SDS011;15036;48.094;-1.690;2023-01-23T04:34:51;27.40;;;17.52;;
27612;SDS011;15036;48.094;-1.690;2023-01-23T04:37:16;26.35;;;18.23;;
27612;SDS011;15036;48.094;-1.690;2023-01-23T04:39:42;27.65;;;18.08;;
27612;SDS011;15036;48.094;-1.690;2023-01-23T04:42:08;25.27;;;17.52;;
27612;SDS011;15036;48.094;-1.690;2023-01-23T04:44:33;26.55;;;17.67;;
27612;SDS011;15036;48.094;-1.690;2023-01-23T04:46:59;23.75;;;16.85;;
27612;SDS011;15036;48.094;-1.690;2023-01-23T04:49:25;30.10;;;18.98;;
27612;SDS011;15036;48.094;-1.690;2023-01-23T04:51:51;26.50;;;16.67;;
27612;SDS011;15036;48.094;-1.690;2023-01-23T04:54:18;25.15;;;16.42;;
27612;SDS011;15036;48.094;-1.690;2023-01-23T04:56:44;26.27;;;17.20;;
27612;SDS011;15036;48.094;-1.690;2023-01-23T04:59:10;29.10;;;17.77;;
27612;SDS011;15036;48.094;-1.690;2023-01-23T05:01:37;26.13;;;16.63;;
27612;SDS011;15036;48.094;-1.690;2023-01-23T05:04:02;24.85;;;17.02;;
27612;SDS011;15036;48.094;-1.690;2023-01-23T05:06:28;25.02;;;17.15;;
27612;SDS011;15036;48.094;-1.690;2023-01-23T05:08:54;26.17;;;17.00;;
27612;SDS011;15036;48.094;-1.690;2023-01-23T05:11:19;26.95;;;16.67;;
27612;SDS011;15036;48.094;-1.690;2023-01-23T05:13:45;27.15;;;16.60;;
27612;SDS011;15036;48.094;-1.690;2023-01-23T05:16:11;26.45;;;16.63;;
27612;SDS011;15036;48.094;-1.690;2023-01-23T05:18:36;25.08;;;16.58;;
27612;SDS011;15036;48.094;-1.690;2023-01-23T05:21:02;27.58;;;16.90;;
27612;SDS011;15036;48.094;-1.690;2023-01-23T05:23:27;24.73;;;16.83;;
27612;SDS011;15036;48.094;-1.690;2023-01-23T05:25:53;25.25;;;16.48;;
27612;SDS011;15036;48.094;-1.690;2023-01-23T05:28:18;24.70;;;16.88;;
27612;SDS011;15036;48.094;-1.690;2023-01-23T05:30:44;28.38;;;17.55;;
27612;SDS011;15036;48.094;-1.690;2023-01-23T05:33:09;26.50;;;17.05;;
27612;SDS011;15036;48.094;-1.690;2023-01-23T05:35:36;27.98;;;16.67;;
27612;SDS011;15036;48.094;-1.690;2023-01-23T05:38:02;25.70;;;17.45;;
27612;SDS011;15036;48.094;-1.690;2023-01-23T05:40:28;27.55;;;18.05;;
27612;SDS011;15036;48.094;-1.690;2023-01-23T05:42:53;25.65;;;18.02;;
27612;SDS011;15036;48.094;-1.690;2023-01-23T05:45:18;26.60;;;17.90;;
27612;SDS011;15036;48.094;-1.690;2023-01-23T05:47:44;24.92;;;17.75;;
27612;SDS011;15036;48.094;-1.690;2023-01-23T05:50:13;26.90;;;17.00;;
27612;SDS011;15036;48.094;-1.690;2023-01-23T05:52:40;25.95;;;17.15;;
27612;SDS011;15036;48.094;-1.690;2023-01-23T05:55:06;28.38;;;18.30;;
27612;SDS011;15036;48.094;-1.690;2023-01-23T05:57:32;28.65;;;17.77;;
27612;SDS011;15036;48.094;-1.690;2023-01-23T05:59:58;26.38;;;16.42;;
27612;SDS011;15036;48.094;-1.690;2023-01-23T06:02:23;26.77;;;17.00;;
27612;SDS011;15036;48.094;-1.690;2023-01-23T06:04:49;28.98;;;17.13;;
27612;SDS011;15036;48.094;-1.690;2023-01-23T06:07:15;25.05;;;15.85;;
27612;SDS011;15036;48.094;-1.690;2023-01-23T06:09:42;28.38;;;17.95;;
27612;SDS011;15036;48.094;-1.690;2023-01-23T06:12:08;31.65;;;17.80;;
27612;SDS011;15036;48.094;-1.690;2023-01-23T06:14:34;27.73;;;17.75;;
27612;SDS011;15036;48.094;-1.690;2023-01-23T06:16:59;25.38;;;18.15;;
27612;SDS011;15036;48.094;-1.690;2023-01-23T06:19:25;26.77;;;17.45;;
27612;SDS011;15036;48.094;-1.690;2023-01-23T06:21:50;30.52;;;19.00;;
27612;SDS011;15036;48.094;-1.690;2023-01-23T06:24:16;31.10;;;19.10;;
27612;SDS011;15036;48.094;-1.690;2023-01-23T06:26:41;29.02;;;17.95;;
27612;SDS011;15036;48.094;-1.690;2023-01-23T06:29:07;27.50;;;18.55;;
27612;SDS011;15036;48.094;-1.690;2023-01-23T06:31:32;29.13;;;19.02;;
27612;SDS011;15036;48.094;-1.690;2023-01-23T06:33:58;28.98;;;18.15;;
27612;SDS011;15036;48.094;-1.690;2023-01-23T06:36:24;29.85;;;18.67;;
27612;SDS011;15036;48.094;-1.690;2023-01-23T06:38:50;29.20;;;18.45;;
27612;SDS011;15036;48.094;-1.690;2023-01-23T06:41:16;28.58;;;18.25;;
27612;SDS011;15036;48.094;-1.690;2023-01-23T06:43:41;28.55;;;18.13;;
27612;SDS011;15036;48.094;-1.690;2023-01-23T06:46:07;27.30;;;18.20;;
27612;SDS011;15036;48.094;-1.690;2023-01-23T06:48:33;27.58;;;18.90;;
27612;SDS011;15036;48.094;-1.690;2023-01-23T06:50:59;31.45;;;18.40;;
27612;SDS011;15036;48.094;-1.690;2023-01-23T06:53:25;28.85;;;19.45;;
27612;SDS011;15036;48.094;-1.690;2023-01-23T06:55:51;29.25;;;18.85;;
27612;SDS011;15036;48.094;-1.690;2023-01-23T06:58:17;28.77;;;19.48;;
27612;SDS011;15036;48.094;-1.690;2023-01-23T07:00:42;29.10;;;18.70;;
27612;SDS011;15036;48.094;-1.690;2023-01-23T07:03:09;28.60;;;19.60;;
27612;SDS011;15036;48.094;-1.690;2023-01-23T07:05:37;30.65;;;20.08;;
27612;SDS011;15036;48.094;-1.690;2023-01-23T07:08:05;29.17;;;18.55;;
27612;SDS011;15036;48.094;-1.690;2023-01-23T07:10:31;30.83;;;18.80;;
27612;SDS011;15036;48.094;-1.690;2023-01-23T07:12:57;29.05;;;18.80;;
27612;SDS011;15036;48.094;-1.690;2023-01-23T07:15:22;30.25;;;20.10;;
27612;SDS011;15036;48.094;-1.690;2023-01-23T07:17:47;29.50;;;19.15;;
27612;SDS011;15036;48.094;-1.690;2023-01-23T07:20:13;30.42;;;19.20;;
27612;SDS011;15036;48.094;-1.690;2023-01-23T07:22:38;28.65;;;19.60;;
27612;SDS011;15036;48.094;-1.690;2023-01-23T07:25:03;27.55;;;18.35;;
27612;SDS011;15036;48.094;-1.690;2023-01-23T07:27:29;28.25;;;19.10;;
27612;SDS011;15036;48.094;-1.690;2023-01-23T07:29:55;34.42;;;21.77;;
27612;SDS011;15036;48.094;-1.690;2023-01-23T07:32:20;35.65;;;21.63;;
27612;SDS011;15036;48.094;-1.690;2023-01-23T07:34:45;28.75;;;19.70;;
27612;SDS011;15036;48.094;-1.690;2023-01-23T07:37:11;33.00;;;19.55;;
27612;SDS011;15036;48.094;-1.690;2023-01-23T07:39:36;31.40;;;19.48;;
27612;SDS011;15036;48.094;-1.690;2023-01-23T07:42:01;30.45;;;19.60;;
27612;SDS011;15036;48.094;-1.690;2023-01-23T07:44:27;28.05;;;18.80;;
27612;SDS011;15036;48.094;-1.690;2023-01-23T07:46:52;28.90;;;18.40;;
27612;SDS011;15036;48.094;-1.690;2023-01-23T07:49:18;31.10;;;18.92;;
27612;SDS011;15036;48.094;-1.690;2023-01-23T07:51:43;30.88;;;18.90;;
27612;SDS011;15036;48.094;-1.690;2023-01-23T07:54:08;28.30;;;18.20;;
27612;SDS011;15036;48.094;-1.690;2023-01-23T07:56:34;34.75;;;19.08;;
27612;SDS011;15036;48.094;-1.690;2023-01-23T07:58:59;29.85;;;18.83;;
27612;SDS011;15036;48.094;-1.690;2023-01-23T08:01:25;26.85;;;18.25;;
27612;SDS011;15036;48.094;-1.690;2023-01-23T08:03:51;37.65;;;20.60;;
27612;SDS011;15036;48.094;-1.690;2023-01-23T08:06:17;31.70;;;18.67;;
27612;SDS011;15036;48.094;-1.690;2023-01-23T08:08:42;32.78;;;20.00;;
27612;SDS011;15036;48.094;-1.690;2023-01-23T08:11:08;33.45;;;19.30;;
27612;SDS011;15036;48.094;-1.690;2023-01-23T08:13:35;27.83;;;18.45;;
27612;SDS011;15036;48.094;-1.690;2023-01-23T08:16:02;31.05;;;19.85;;
27612;SDS011;15036;48.094;-1.690;2023-01-23T08:18:28;29.42;;;18.52;;
27612;SDS011;15036;48.094;-1.690;2023-01-23T08:20:55;28.77;;;18.40;;
27612;SDS011;15036;48.094;-1.690;2023-01-23T08:23:25;27.30;;;19.13;;
27612;SDS011;15036;48.094;-1.690;2023-01-23T08:25:55;34.08;;;19.52;;
27612;SDS011;15036;48.094;-1.690;2023-01-23T08:28:22;33.22;;;18.17;;
27612;SDS011;15036;48.094;-1.690;2023-01-23T08:30:49;32.75;;;19.55;;
27612;SDS011;15036;48.094;-1.690;2023-01-23T08:33:15;31.58;;;19.83;;
27612;SDS011;15036;48.094;-1.690;2023-01-23T08:35:50;32.72;;;19.98;;
27612;SDS011;15036;48.094;-1.690;2023-01-23T08:38:22;32.15;;;19.25;;
27612;SDS011;15036;48.094;-1.690;2023-01-23T08:40:49;30.10;;;18.98;;
27612;SDS011;15036;48.094;-1.690;2023-01-23T08:43:16;30.75;;;18.77;;
27612;SDS011;15036;48.094;-1.690;2023-01-23T08:45:46;30.70;;;18.98;;
27612;SDS011;15036;48.094;-1.690;2023-01-23T08:48:13;31.95;;;18.60;;
27612;SDS011;15036;48.094;-1.690;2023-01-23T08:50:39;28.60;;;19.17;;
27612;SDS011;15036;48.094;-1.690;2023-01-23T08:53:04;30.17;;;18.50;;
27612;SDS011;15036;48.094;-1.690;2023-01-23T08:55:29;29.30;;;18.40;;
27612;SDS011;15036;48.094;-1.690;2023-01-23T08:57:56;27.85;;;17.58;;
27612;SDS011;15036;48.094;-1.690;2023-01-23T09:00:22;29.52;;;17.90;;
27612;SDS011;15036;48.094;-1.690;2023-01-23T09:02:47;28.48;;;16.50;;
27612;SDS011;15036;48.094;-1.690;2023-01-23T09:05:13;25.98;;;17.17;;
27612;SDS011;15036;48.094;-1.690;2023-01-23T09:07:38;28.58;;;17.42;;
27612;SDS011;15036;48.094;-1.690;2023-01-23T09:10:05;27.35;;;17.42;;
27612;SDS011;15036;48.094;-1.690;2023-01-23T09:12:31;30.33;;;18.10;;
27612;SDS011;15036;48.094;-1.690;2023-01-23T09:14:56;28.88;;;17.48;;
27612;SDS011;15036;48.094;-1.690;2023-01-23T09:17:22;29.35;;;15.98;;
27612;SDS011;15036;48.094;-1.690;2023-01-23T09:19:48;26.70;;;17.20;;
27612;SDS011;15036;48.094;-1.690;2023-01-23T09:22:13;27.45;;;17.73;;
27612;SDS011;15036;48.094;-1.690;2023-01-23T09:24:40;28.45;;;16.65;;
27612;SDS011;15036;48.094;-1.690;2023-01-23T09:27:05;25.52;;;16.17;;
27612;SDS011;15036;48.094;-1.690;2023-01-23T09:29:31;25.55;;;16.85;;
27612;SDS011;15036;48.094;-1.690;2023-01-23T09:31:56;28.23;;;16.00;;
27612;SDS011;15036;48.094;-1.690;2023-01-23T09:34:22;28.13;;;16.55;;
27612;SDS011;15036;48.094;-1.690;2023-01-23T09:36:48;44.17;;;17.42;;
27612;SDS011;15036;48.094;-1.690;2023-01-23T09:39:13;29.02;;;17.38;;
27612;SDS011;15036;48.094;-1.690;2023-01-23T09:41:39;62.60;;;18.80;;
27612;SDS011;15036;48.094;-1.690;2023-01-23T09:46:49;26.77;;;16.08;;
27612;SDS011;15036;48.094;-1.690;2023-01-23T09:54:50;31.77;;;19.13;;
27612;SDS011;15036;48.094;-1.690;2023-01-23T09:57:31;29.48;;;17.63;;
27612;SDS011;15036;48.094;-1.690;2023-01-23T10:00:20;25.25;;;17.00;;
27612;SDS011;15036;48.094;-1.690;2023-01-23T10:02:49;25.17;;;15.45;;
27612;SDS011;15036;48.094;-1.690;2023-01-23T10:05:17;24.63;;;15.10;;
27612;SDS011;15036;48.094;-1.690;2023-01-23T10:13:16;22.27;;;14.38;;
27612;SDS011;15036;48.094;-1.690;2023-01-23T10:20:45;23.58;;;15.05;;
27612;SDS011;15036;48.094;-1.690;2023-01-23T10:26:13;23.75;;;14.60;;
27612;SDS011;15036;48.094;-1.690;2023-01-23T10:28:55;30.60;;;17.25;;
27612;SDS011;15036;48.094;-1.690;2023-01-23T10:32:12;24.02;;;15.82;;
27612;SDS011;15036;48.094;-1.690;2023-01-23T10:37:06;21.88;;;15.88;;
27612;SDS011;15036;48.094;-1.690;2023-01-23T10:42:27;25.05;;;15.55;;
27612;SDS011;15036;48.094;-1.690;2023-01-23T10:44:53;22.77;;;16.33;;
27612;SDS011;15036;48.094;-1.690;2023-01-23T10:47:35;25.02;;;15.48;;
27612;SDS011;15036;48.094;-1.690;2023-01-23T10:50:11;24.48;;;15.75;;
27612;SDS011;15036;48.094;-1.690;2023-01-23T10:52:41;21.63;;;14.73;;
27612;SDS011;15036;48.094;-1.690;2023-01-23T10:57:48;22.33;;;15.65;;
27612;SDS011;15036;48.094;-1.690;2023-01-23T11:00:29;25.30;;;16.08;;
27612;SDS011;15036;48.094;-1.690;2023-01-23T11:08:35;23.92;;;14.90;;
27612;SDS011;15036;48.094;-1.690;2023-01-23T11:13:40;23.17;;;14.95;;
27612;SDS011;15036;48.094;-1.690;2023-01-23T11:16:11;25.00;;;15.85;;
27612;SDS011;15036;48.094;-1.690;2023-01-23T11:18:42;21.63;;;15.35;;
27612;SDS011;15036;48.094;-1.690;2023-01-23T11:21:23;22.60;;;15.73;;
27612;SDS011;15036;48.094;-1.690;2023-01-23T11:24:35;24.80;;;15.75;;
27612;SDS011;15036;48.094;-1.690;2023-01-23T11:27:31;23.33;;;14.93;;
27612;SDS011;15036;48.094;-1.690;2023-01-23T11:32:58;22.95;;;15.10;;
27612;SDS011;15036;48.094;-1.690;2023-01-23T11:35:44;24.63;;;14.65;;
27612;SDS011;15036;48.094;-1.690;2023-01-23T11:38:16;22.98;;;15.07;;
27612;SDS011;15036;48.094;-1.690;2023-01-23T11:40:47;25.02;;;17.02;;
27612;SDS011;15036;48.094;-1.690;2023-01-23T11:43:15;24.73;;;16.38;;
27612;SDS011;15036;48.094;-1.690;2023-01-23T11:51:23;21.95;;;14.55;;
27612;SDS011;15036;48.094;-1.690;2023-01-23T11:54:56;20.52;;;15.63;;
27612;SDS011;15036;48.094;-1.690;2023-01-23T11:57:03;15.70;;;10.70;;
27612;SDS011;15036;48.094;-1.690;2023-01-23T12:18:45;19.70;;;13.50;;
27612;SDS011;15036;48.094;-1.690;2023-01-23T12:24:06;21.05;;;14.18;;
27612;SDS011;15036;48.094;-1.690;2023-01-23T12:26:54;19.10;;;12.77;;
27612;SDS011;15036;48.094;-1.690;2023-01-23T12:29:30;19.58;;;13.25;;
27612;SDS011;15036;48.094;-1.690;2023-01-23T12:32:31;18.45;;;13.20;;
27612;SDS011;15036;48.094;-1.690;2023-01-23T12:37:32;17.90;;;13.25;;
27612;SDS011;15036;48.094;-1.690;2023-01-23T12:40:03;18.58;;;12.75;;
27612;SDS011;15036;48.094;-1.690;2023-01-23T12:45:39;17.60;;;11.65;;
27612;SDS011;15036;48.094;-1.690;2023-01-23T12:48:24;19.92;;;12.48;;
27612;SDS011;15036;48.094;-1.690;2023-01-23T12:50:58;17.05;;;12.07;;
27612;SDS011;15036;48.094;-1.690;2023-01-23T12:53:30;18.48;;;12.43;;
27612;SDS011;15036;48.094;-1.690;2023-01-23T12:58:28;16.33;;;11.13;;
27612;SDS011;15036;48.094;-1.690;2023-01-23T13:01:19;18.27;;;12.35;;
27612;SDS011;15036;48.094;-1.690;2023-01-23T13:06:23;16.25;;;11.27;;
27612;SDS011;15036;48.094;-1.690;2023-01-23T13:11:49;16.15;;;12.10;;
27612;SDS011;15036;48.094;-1.690;2023-01-23T13:14:37;15.52;;;11.52;;
27612;SDS011;15036;48.094;-1.690;2023-01-23T13:17:25;19.13;;;11.10;;
27612;SDS011;15036;48.094;-1.690;2023-01-23T13:19:58;13.95;;;10.93;;
27612;SDS011;15036;48.094;-1.690;2023-01-23T13:23:17;17.35;;;11.23;;
27612;SDS011;15036;48.094;-1.690;2023-01-23T13:25:43;17.80;;;11.93;;
27612;SDS011;15036;48.094;-1.690;2023-01-23T13:31:04;15.90;;;11.13;;
27612;SDS011;15036;48.094;-1.690;2023-01-23T13:33:50;14.32;;;9.98;;
27612;SDS011;15036;48.094;-1.690;2023-01-23T13:36:21;14.77;;;10.35;;
27612;SDS011;15036;48.094;-1.690;2023-01-23T13:41:46;14.60;;;9.85;;
27612;SDS011;15036;48.094;-1.690;2023-01-23T13:52:17;12.60;;;9.38;;
27612;SDS011;15036;48.094;-1.690;2023-01-23T13:55:11;12.65;;;9.25;;
27612;SDS011;15036;48.094;-1.690;2023-01-23T13:58:07;12.43;;;9.48;;
27612;SDS011;15036;48.094;-1.690;2023-01-23T14:00:35;14.95;;;9.88;;
27612;SDS011;15036;48.094;-1.690;2023-01-23T14:06:04;12.65;;;9.75;;
27612;SDS011;15036;48.094;-1.690;2023-01-23T14:08:45;13.02;;;10.20;;
27612;SDS011;15036;48.094;-1.690;2023-01-23T14:11:16;16.10;;;11.15;;
27612;SDS011;15036;48.094;-1.690;2023-01-23T14:16:15;19.02;;;13.35;;
27612;SDS011;15036;48.094;-1.690;2023-01-23T14:18:51;16.08;;;12.30;;
27612;SDS011;15036;48.094;-1.690;2023-01-23T14:21:22;16.17;;;11.90;;
27612;SDS011;15036;48.094;-1.690;2023-01-23T14:23:51;14.73;;;11.05;;
27612;SDS011;15036;48.094;-1.690;2023-01-23T14:26:19;18.17;;;11.40;;
27612;SDS011;15036;48.094;-1.690;2023-01-23T14:28:58;14.85;;;10.75;;
27612;SDS011;15036;48.094;-1.690;2023-01-23T14:34:02;15.63;;;10.85;;
27612;SDS011;15036;48.094;-1.690;2023-01-23T14:36:40;16.27;;;10.80;;
27612;SDS011;15036;48.094;-1.690;2023-01-23T14:39:10;18.30;;;12.68;;
27612;SDS011;15036;48.094;-1.690;2023-01-23T14:41:43;17.27;;;13.20;;
27612;SDS011;15036;48.094;-1.690;2023-01-23T14:44:14;18.35;;;13.32;;
27612;SDS011;15036;48.094;-1.690;2023-01-23T14:46:44;18.95;;;13.98;;
27612;SDS011;15036;48.094;-1.690;2023-01-23T14:49:14;21.58;;;13.90;;
27612;SDS011;15036;48.094;-1.690;2023-01-23T14:52:03;17.08;;;12.98;;
27612;SDS011;15036;48.094;-1.690;2023-01-23T14:54:31;20.48;;;14.70;;
27612;SDS011;15036;48.094;-1.690;2023-01-23T14:56:57;19.02;;;13.90;;
27612;SDS011;15036;48.094;-1.690;2023-01-23T14:59:26;20.38;;;14.75;;
27612;SDS011;15036;48.094;-1.690;2023-01-23T15:01:59;18.75;;;14.23;;
27612;SDS011;15036;48.094;-1.690;2023-01-23T15:04:26;18.77;;;12.88;;
27612;SDS011;15036;48.094;-1.690;2023-01-23T15:06:59;21.42;;;14.57;;
27612;SDS011;15036;48.094;-1.690;2023-01-23T15:09:32;19.75;;;13.75;;
27612;SDS011;15036;48.094;-1.690;2023-01-23T15:12:14;19.05;;;14.27;;
27612;SDS011;15036;48.094;-1.690;2023-01-23T15:14:41;17.55;;;13.50;;
27612;SDS011;15036;48.094;-1.690;2023-01-23T15:17:14;21.30;;;14.40;;
27612;SDS011;15036;48.094;-1.690;2023-01-23T15:19:42;20.65;;;13.85;;
27612;SDS011;15036;48.094;-1.690;2023-01-23T15:25:28;18.50;;;13.43;;
27612;SDS011;15036;48.094;-1.690;2023-01-23T15:27:55;21.38;;;14.13;;
27612;SDS011;15036;48.094;-1.690;2023-01-23T15:33:04;19.08;;;13.98;;
27612;SDS011;15036;48.094;-1.690;2023-01-23T15:35:48;18.80;;;12.98;;
27612;SDS011;15036;48.094;-1.690;2023-01-23T15:38:14;20.15;;;14.15;;
27612;SDS011;15036;48.094;-1.690;2023-01-23T15:40:41;20.45;;;14.52;;
27612;SDS011;15036;48.094;-1.690;2023-01-23T15:43:17;19.70;;;14.50;;
27612;SDS011;15036;48.094;-1.690;2023-01-23T15:45:43;19.55;;;13.68;;
27612;SDS011;15036;48.094;-1.690;2023-01-23T15:48:09;23.48;;;14.82;;
27612;SDS011;15036;48.094;-1.690;2023-01-23T15:50:34;19.23;;;13.82;;
27612;SDS011;15036;48.094;-1.690;2023-01-23T15:53:00;18.08;;;14.15;;
27612;SDS011;15036;48.094;-1.690;2023-01-23T15:55:26;18.73;;;13.73;;
27612;SDS011;15036;48.094;-1.690;2023-01-23T15:57:52;20.70;;;12.90;;
27612;SDS011;15036;48.094;-1.690;2023-01-23T16:00:22;19.17;;;12.95;;
27612;SDS011;15036;48.094;-1.690;2023-01-23T16:02:50;18.20;;;13.07;;
27612;SDS011;15036;48.094;-1.690;2023-01-23T16:05:17;17.48;;;12.65;;
27612;SDS011;15036;48.094;-1.690;2023-01-23T16:07:45;21.27;;;14.45;;
27612;SDS011;15036;48.094;-1.690;2023-01-23T16:10:22;17.73;;;12.55;;
27612;SDS011;15036;48.094;-1.690;2023-01-23T16:12:54;19.88;;;13.43;;
27612;SDS011;15036;48.094;-1.690;2023-01-23T16:17:50;19.02;;;13.05;;